sensor_id;sensor_type;location;lat;lon;timestamp;temperature;humidity
60242;SHT30;46103;52.076;113.488;2023-07-30T00:02:04;23.79;67.78
60242;SHT30;46103;52.076;113.488;2023-07-30T00:05:10;23.87;67.73
60242;SHT30;46103;52.076;113.488;2023-07-30T00:08:16;24.02;67.38
60242;SHT30;46103;52.076;113.488;2023-07-30T00:11:22;24.26;66.69
60242;SHT30;46103;52.076;113.488;2023-07-30T00:14:28;24.57;66.20
60242;SHT30;46103;52.076;113.488;2023-07-30T00:17:34;24.92;65.13
60242;SHT30;46103;52.076;113.488;2023-07-30T00:20:41;25.11;65.16
60242;SHT30;46103;52.076;113.488;2023-07-30T00:23:48;25.28;64.95
60242;SHT30;46103;52.076;113.488;2023-07-30T00:26:54;25.39;64.46
60242;SHT30;46103;52.076;113.488;2023-07-30T00:30:00;25.42;64.43
60242;SHT30;46103;52.076;113.488;2023-07-30T00:33:06;25.35;63.89
60242;SHT30;46103;52.076;113.488;2023-07-30T00:36:13;24.88;64.76
60242;SHT30;46103;52.076;113.488;2023-07-30T00:39:20;23.97;67.55
60242;SHT30;46103;52.076;113.488;2023-07-30T00:42:27;23.60;68.12
60242;SHT30;46103;52.076;113.488;2023-07-30T00:45:35;23.46;68.32
60242;SHT30;46103;52.076;113.488;2023-07-30T00:48:42;23.34;69.13
60242;SHT30;46103;52.076;113.488;2023-07-30T00:51:48;23.33;69.27
60242;SHT30;46103;52.076;113.488;2023-07-30T00:54:54;23.70;68.13
60242;SHT30;46103;52.076;113.488;2023-07-30T00:58:16;24.00;67.25
60242;SHT30;46103;52.076;113.488;2023-07-30T01:01:25;24.49;65.76
60242;SHT30;46103;52.076;113.488;2023-07-30T01:04:32;24.98;64.54
60242;SHT30;46103;52.076;113.488;2023-07-30T01:07:38;25.58;63.43
60242;SHT30;46103;52.076;113.488;2023-07-30T01:10:44;26.07;62.26
60242;SHT30;46103;52.076;113.488;2023-07-30T01:13:53;26.32;61.63
60242;SHT30;46103;52.076;113.488;2023-07-30T01:17:00;26.46;61.52
60242;SHT30;46103;52.076;113.488;2023-07-30T01:20:11;26.46;61.19
60242;SHT30;46103;52.076;113.488;2023-07-30T01:23:17;26.42;61.09
60242;SHT30;46103;52.076;113.488;2023-07-30T01:26:49;26.48;61.14
60242;SHT30;46103;52.076;113.488;2023-07-30T01:33:15;26.69;61.19
60242;SHT30;46103;52.076;113.488;2023-07-30T01:36:21;26.73;61.07
60242;SHT30;46103;52.076;113.488;2023-07-30T01:39:28;26.63;61.53
60242;SHT30;46103;52.076;113.488;2023-07-30T01:42:38;26.66;61.73
60242;SHT30;46103;52.076;113.488;2023-07-30T01:45:44;26.73;61.65
60242;SHT30;46103;52.076;113.488;2023-07-30T01:48:51;26.86;61.00
60242;SHT30;46103;52.076;113.488;2023-07-30T01:51:57;26.93;61.00
60242;SHT30;46103;52.076;113.488;2023-07-30T01:55:05;27.06;60.74
60242;SHT30;46103;52.076;113.488;2023-07-30T01:58:12;27.07;60.92
60242;SHT30;46103;52.076;113.488;2023-07-30T02:01:18;27.04;60.83
60242;SHT30;46103;52.076;113.488;2023-07-30T02:04:24;27.02;61.36
60242;SHT30;46103;52.076;113.488;2023-07-30T02:07:31;27.21;61.37
60242;SHT30;46103;52.076;113.488;2023-07-30T02:10:38;27.26;60.89
60242;SHT30;46103;52.076;113.488;2023-07-30T02:13:45;27.44;60.58
60242;SHT30;46103;52.076;113.488;2023-07-30T02:16:51;27.78;59.88
60242;SHT30;46103;52.076;113.488;2023-07-30T02:19:57;27.97;56.87
60242;SHT30;46103;52.076;113.488;2023-07-30T02:23:05;28.14;56.16
60242;SHT30;46103;52.076;113.488;2023-07-30T02:26:13;28.30;55.72
60242;SHT30;46103;52.076;113.488;2023-07-30T02:29:20;28.62;55.53
60242;SHT30;46103;52.076;113.488;2023-07-30T02:32:27;28.71;54.71
60242;SHT30;46103;52.076;113.488;2023-07-30T02:35:35;28.85;54.12
60242;SHT30;46103;52.076;113.488;2023-07-30T02:38:41;28.88;54.05
60242;SHT30;46103;52.076;113.488;2023-07-30T02:41:49;28.98;53.63
60242;SHT30;46103;52.076;113.488;2023-07-30T02:44:56;29.20;53.50
60242;SHT30;46103;52.076;113.488;2023-07-30T02:48:04;29.33;52.81
60242;SHT30;46103;52.076;113.488;2023-07-30T02:51:13;29.50;52.75
60242;SHT30;46103;52.076;113.488;2023-07-30T02:54:19;29.85;51.90
60242;SHT30;46103;52.076;113.488;2023-07-30T02:57:28;30.09;51.02
60242;SHT30;46103;52.076;113.488;2023-07-30T03:00:35;30.46;50.50
60242;SHT30;46103;52.076;113.488;2023-07-30T03:03:42;30.46;50.40
60242;SHT30;46103;52.076;113.488;2023-07-30T03:06:47;30.59;50.13
60242;SHT30;46103;52.076;113.488;2023-07-30T03:09:57;30.74;49.83
60242;SHT30;46103;52.076;113.488;2023-07-30T03:13:03;30.67;50.22
60242;SHT30;46103;52.076;113.488;2023-07-30T03:16:11;30.78;49.60
60242;SHT30;46103;52.076;113.488;2023-07-30T03:19:18;30.44;50.64
60242;SHT30;46103;52.076;113.488;2023-07-30T03:22:32;30.29;51.10
60242;SHT30;46103;52.076;113.488;2023-07-30T03:25:41;30.55;50.90
60242;SHT30;46103;52.076;113.488;2023-07-30T03:28:48;30.94;50.34
60242;SHT30;46103;52.076;113.488;2023-07-30T03:31:56;31.33;49.01
60242;SHT30;46103;52.076;113.488;2023-07-30T03:35:05;31.42;48.57
60242;SHT30;46103;52.076;113.488;2023-07-30T03:38:13;31.53;48.47
60242;SHT30;46103;52.076;113.488;2023-07-30T03:41:18;31.47;48.73
60242;SHT30;46103;52.076;113.488;2023-07-30T03:44:24;31.56;48.50
60242;SHT30;46103;52.076;113.488;2023-07-30T03:47:30;31.74;47.43
60242;SHT30;46103;52.076;113.488;2023-07-30T03:50:37;31.96;47.30
60242;SHT30;46103;52.076;113.488;2023-07-30T03:53:54;32.07;46.77
60242;SHT30;46103;52.076;113.488;2023-07-30T03:57:04;32.08;46.65
60242;SHT30;46103;52.076;113.488;2023-07-30T04:00:23;32.04;47.50
60242;SHT30;46103;52.076;113.488;2023-07-30T04:03:31;32.04;47.44
60242;SHT30;46103;52.076;113.488;2023-07-30T04:06:39;32.03;47.67
60242;SHT30;46103;52.076;113.488;2023-07-30T04:09:46;32.23;47.43
60242;SHT30;46103;52.076;113.488;2023-07-30T04:12:56;32.49;46.92
60242;SHT30;46103;52.076;113.488;2023-07-30T04:16:03;32.80;46.19
60242;SHT30;46103;52.076;113.488;2023-07-30T04:19:11;32.83;46.51
60242;SHT30;46103;52.076;113.488;2023-07-30T04:22:31;32.89;46.10
60242;SHT30;46103;52.076;113.488;2023-07-30T04:25:36;32.99;45.71
60242;SHT30;46103;52.076;113.488;2023-07-30T04:28:46;33.04;45.23
60242;SHT30;46103;52.076;113.488;2023-07-30T04:31:52;32.68;45.51
60242;SHT30;46103;52.076;113.488;2023-07-30T04:34:59;32.52;46.00
60242;SHT30;46103;52.076;113.488;2023-07-30T04:38:06;32.48;46.10
60242;SHT30;46103;52.076;113.488;2023-07-30T04:41:25;32.68;46.16
60242;SHT30;46103;52.076;113.488;2023-07-30T04:44:33;32.72;46.33
60242;SHT30;46103;52.076;113.488;2023-07-30T04:47:52;32.70;46.47
60242;SHT30;46103;52.076;113.488;2023-07-30T04:51:13;32.62;46.69
60242;SHT30;46103;52.076;113.488;2023-07-30T04:54:32;32.59;47.16
60242;SHT30;46103;52.076;113.488;2023-07-30T04:57:40;32.61;47.02
60242;SHT30;46103;52.076;113.488;2023-07-30T05:00:47;32.41;47.62
60242;SHT30;46103;52.076;113.488;2023-07-30T05:03:53;32.58;47.22
60242;SHT30;46103;52.076;113.488;2023-07-30T05:07:02;32.58;47.15
60242;SHT30;46103;52.076;113.488;2023-07-30T05:10:07;32.45;47.56
60242;SHT30;46103;52.076;113.488;2023-07-30T05:13:17;32.52;47.91
60242;SHT30;46103;52.076;113.488;2023-07-30T05:16:23;32.36;47.90
60242;SHT30;46103;52.076;113.488;2023-07-30T05:19:32;32.20;48.42
60242;SHT30;46103;52.076;113.488;2023-07-30T05:22:37;32.18;49.16
60242;SHT30;46103;52.076;113.488;2023-07-30T05:25:56;32.11;48.56
60242;SHT30;46103;52.076;113.488;2023-07-30T05:29:01;32.24;48.50
60242;SHT30;46103;52.076;113.488;2023-07-30T05:32:09;32.25;48.59
60242;SHT30;46103;52.076;113.488;2023-07-30T05:35:20;32.35;48.17
60242;SHT30;46103;52.076;113.488;2023-07-30T05:38:29;32.59;48.18
60242;SHT30;46103;52.076;113.488;2023-07-30T05:41:35;32.63;48.11
60242;SHT30;46103;52.076;113.488;2023-07-30T05:44:46;32.75;47.19
60242;SHT30;46103;52.076;113.488;2023-07-30T05:47:52;32.76;47.24
60242;SHT30;46103;52.076;113.488;2023-07-30T05:50:58;32.84;47.13
60242;SHT30;46103;52.076;113.488;2023-07-30T05:54:05;33.06;46.97
60242;SHT30;46103;52.076;113.488;2023-07-30T05:57:13;33.17;46.81
60242;SHT30;46103;52.076;113.488;2023-07-30T06:00:20;33.37;47.15
60242;SHT30;46103;52.076;113.488;2023-07-30T06:03:27;33.54;46.70
60242;SHT30;46103;52.076;113.488;2023-07-30T06:06:33;33.73;46.11
60242;SHT30;46103;52.076;113.488;2023-07-30T06:09:40;33.93;46.04
60242;SHT30;46103;52.076;113.488;2023-07-30T06:12:51;34.12;46.12
60242;SHT30;46103;52.076;113.488;2023-07-30T06:15:58;34.43;45.51
60242;SHT30;46103;52.076;113.488;2023-07-30T06:19:11;34.74;45.21
60242;SHT30;46103;52.076;113.488;2023-07-30T06:22:18;34.98;44.80
60242;SHT30;46103;52.076;113.488;2023-07-30T06:25:36;35.32;44.15
60242;SHT30;46103;52.076;113.488;2023-07-30T06:28:42;35.59;43.85
60242;SHT30;46103;52.076;113.488;2023-07-30T06:31:57;35.88;42.70
60242;SHT30;46103;52.076;113.488;2023-07-30T06:35:05;36.27;42.32
60242;SHT30;46103;52.076;113.488;2023-07-30T06:38:12;36.12;42.07
60242;SHT30;46103;52.076;113.488;2023-07-30T06:41:18;36.25;41.61
60242;SHT30;46103;52.076;113.488;2023-07-30T06:44:25;36.45;41.18
60242;SHT30;46103;52.076;113.488;2023-07-30T06:47:42;36.70;40.89
60242;SHT30;46103;52.076;113.488;2023-07-30T06:50:45;36.83;40.37
60242;SHT30;46103;52.076;113.488;2023-07-30T06:53:49;36.46;40.74
60242;SHT30;46103;52.076;113.488;2023-07-30T06:56:52;36.32;41.31
60242;SHT30;46103;52.076;113.488;2023-07-30T06:59:56;36.46;40.96
60242;SHT30;46103;52.076;113.488;2023-07-30T07:03:00;36.57;40.85
60242;SHT30;46103;52.076;113.488;2023-07-30T07:06:15;36.94;40.29
60242;SHT30;46103;52.076;113.488;2023-07-30T07:09:19;37.88;38.97
60242;SHT30;46103;52.076;113.488;2023-07-30T07:12:23;38.41;38.03
60242;SHT30;46103;52.076;113.488;2023-07-30T07:15:27;39.39;36.49
60242;SHT30;46103;52.076;113.488;2023-07-30T07:18:32;39.94;35.69
60242;SHT30;46103;52.076;113.488;2023-07-30T07:21:35;40.50;35.05
60242;SHT30;46103;52.076;113.488;2023-07-30T07:24:39;40.90;34.69
60242;SHT30;46103;52.076;113.488;2023-07-30T07:27:42;41.00;34.48
60242;SHT30;46103;52.076;113.488;2023-07-30T07:30:47;40.76;35.02
60242;SHT30;46103;52.076;113.488;2023-07-30T07:34:30;40.63;35.23
60242;SHT30;46103;52.076;113.488;2023-07-30T07:37:34;40.97;34.58
60242;SHT30;46103;52.076;113.488;2023-07-30T07:40:38;41.48;34.24
60242;SHT30;46103;52.076;113.488;2023-07-30T07:43:46;41.70;34.05
60242;SHT30;46103;52.076;113.488;2023-07-30T07:46:50;41.65;33.67
60242;SHT30;46103;52.076;113.488;2023-07-30T07:49:54;41.43;33.51
60242;SHT30;46103;52.076;113.488;2023-07-30T07:52:58;41.60;33.59
60242;SHT30;46103;52.076;113.488;2023-07-30T07:56:01;42.16;33.20
60242;SHT30;46103;52.076;113.488;2023-07-30T07:59:05;42.69;32.92
60242;SHT30;46103;52.076;113.488;2023-07-30T08:02:09;42.98;32.26
60242;SHT30;46103;52.076;113.488;2023-07-30T08:05:13;43.10;32.26
60242;SHT30;46103;52.076;113.488;2023-07-30T08:08:18;42.24;32.76
60242;SHT30;46103;52.076;113.488;2023-07-30T08:11:21;41.48;33.93
60242;SHT30;46103;52.076;113.488;2023-07-30T08:14:26;40.79;35.05
60242;SHT30;46103;52.076;113.488;2023-07-30T08:17:31;40.62;35.46
60242;SHT30;46103;52.076;113.488;2023-07-30T08:20:34;40.07;35.80
60242;SHT30;46103;52.076;113.488;2023-07-30T08:23:37;39.45;36.31
60242;SHT30;46103;52.076;113.488;2023-07-30T08:26:41;38.88;36.76
60242;SHT30;46103;52.076;113.488;2023-07-30T08:29:44;38.23;37.80
60242;SHT30;46103;52.076;113.488;2023-07-30T08:32:48;37.72;38.61
60242;SHT30;46103;52.076;113.488;2023-07-30T08:35:55;37.06;39.21
60242;SHT30;46103;52.076;113.488;2023-07-30T08:39:01;36.82;39.85
60242;SHT30;46103;52.076;113.488;2023-07-30T08:42:07;36.77;40.08
60242;SHT30;46103;52.076;113.488;2023-07-30T08:45:13;36.73;40.10
60242;SHT30;46103;52.076;113.488;2023-07-30T08:48:20;36.72;40.44
60242;SHT30;46103;52.076;113.488;2023-07-30T08:51:26;36.70;40.27
60242;SHT30;46103;52.076;113.488;2023-07-30T08:54:31;36.50;40.77
60242;SHT30;46103;52.076;113.488;2023-07-30T08:57:49;36.29;41.43
60242;SHT30;46103;52.076;113.488;2023-07-30T09:00:55;36.06;42.30
60242;SHT30;46103;52.076;113.488;2023-07-30T09:03:59;36.04;41.90
60242;SHT30;46103;52.076;113.488;2023-07-30T09:07:08;35.87;42.13
60242;SHT30;46103;52.076;113.488;2023-07-30T09:10:14;36.35;41.61
60242;SHT30;46103;52.076;113.488;2023-07-30T09:13:22;36.93;40.91
60242;SHT30;46103;52.076;113.488;2023-07-30T09:16:28;37.42;40.13
60242;SHT30;46103;52.076;113.488;2023-07-30T09:19:35;38.05;39.37
60242;SHT30;46103;52.076;113.488;2023-07-30T09:22:39;39.08;37.89
60242;SHT30;46103;52.076;113.488;2023-07-30T09:25:47;39.45;37.35
60242;SHT30;46103;52.076;113.488;2023-07-30T09:28:55;39.88;36.69
60242;SHT30;46103;52.076;113.488;2023-07-30T09:31:59;39.63;37.03
60242;SHT30;46103;52.076;113.488;2023-07-30T09:35:10;38.85;38.10
60242;SHT30;46103;52.076;113.488;2023-07-30T09:38:14;38.36;38.73
60242;SHT30;46103;52.076;113.488;2023-07-30T09:41:18;38.05;39.38
60242;SHT30;46103;52.076;113.488;2023-07-30T09:44:22;38.30;40.15
60242;SHT30;46103;52.076;113.488;2023-07-30T09:47:27;38.86;39.33
60242;SHT30;46103;52.076;113.488;2023-07-30T09:50:31;39.13;39.15
60242;SHT30;46103;52.076;113.488;2023-07-30T09:53:35;39.92;37.73
60242;SHT30;46103;52.076;113.488;2023-07-30T09:56:41;40.62;36.35
60242;SHT30;46103;52.076;113.488;2023-07-30T10:00:03;40.42;36.63
60242;SHT30;46103;52.076;113.488;2023-07-30T10:03:12;40.57;36.52
60242;SHT30;46103;52.076;113.488;2023-07-30T10:06:19;40.64;36.65
60242;SHT30;46103;52.076;113.488;2023-07-30T10:09:23;40.49;36.57
60242;SHT30;46103;52.076;113.488;2023-07-30T10:12:31;40.19;37.08
60242;SHT30;46103;52.076;113.488;2023-07-30T10:15:37;39.80;37.88
60242;SHT30;46103;52.076;113.488;2023-07-30T10:18:43;38.96;38.89
60242;SHT30;46103;52.076;113.488;2023-07-30T10:21:46;38.50;39.44
60242;SHT30;46103;52.076;113.488;2023-07-30T10:25:02;37.68;40.82
60242;SHT30;46103;52.076;113.488;2023-07-30T10:28:06;37.39;41.61
60242;SHT30;46103;52.076;113.488;2023-07-30T10:31:10;37.11;41.60
60242;SHT30;46103;52.076;113.488;2023-07-30T10:34:16;36.84;42.31
60242;SHT30;46103;52.076;113.488;2023-07-30T10:37:21;36.68;42.55
60242;SHT30;46103;52.076;113.488;2023-07-30T10:40:24;36.79;42.46
60242;SHT30;46103;52.076;113.488;2023-07-30T10:43:30;36.93;42.21
60242;SHT30;46103;52.076;113.488;2023-07-30T10:46:34;37.57;41.45
60242;SHT30;46103;52.076;113.488;2023-07-30T10:49:40;37.33;41.83
60242;SHT30;46103;52.076;113.488;2023-07-30T10:52:50;37.38;41.87
60242;SHT30;46103;52.076;113.488;2023-07-30T10:55:57;36.94;42.62
60242;SHT30;46103;52.076;113.488;2023-07-30T10:59:14;36.39;43.34
60242;SHT30;46103;52.076;113.488;2023-07-30T11:02:19;35.78;44.20
60242;SHT30;46103;52.076;113.488;2023-07-30T11:05:25;35.25;45.13
60242;SHT30;46103;52.076;113.488;2023-07-30T11:08:36;34.82;45.54
60242;SHT30;46103;52.076;113.488;2023-07-30T11:11:40;34.50;46.08
60242;SHT30;46103;52.076;113.488;2023-07-30T11:14:46;34.23;47.12
60242;SHT30;46103;52.076;113.488;2023-07-30T11:17:53;33.98;47.25
60242;SHT30;46103;52.076;113.488;2023-07-30T11:21:10;33.64;48.21
60242;SHT30;46103;52.076;113.488;2023-07-30T11:24:14;33.62;48.06
60242;SHT30;46103;52.076;113.488;2023-07-30T11:27:18;33.65;47.88
60242;SHT30;46103;52.076;113.488;2023-07-30T11:30:22;33.75;48.05
60242;SHT30;46103;52.076;113.488;2023-07-30T11:33:27;33.73;47.88
60242;SHT30;46103;52.076;113.488;2023-07-30T11:36:32;33.76;48.15
60242;SHT30;46103;52.076;113.488;2023-07-30T11:39:41;33.72;47.76
60242;SHT30;46103;52.076;113.488;2023-07-30T11:42:46;33.59;48.15
60242;SHT30;46103;52.076;113.488;2023-07-30T11:46:06;33.47;48.34
60242;SHT30;46103;52.076;113.488;2023-07-30T11:49:13;33.17;48.90
60242;SHT30;46103;52.076;113.488;2023-07-30T11:52:18;32.91;49.13
60242;SHT30;46103;52.076;113.488;2023-07-30T11:55:23;32.68;49.50
60242;SHT30;46103;52.076;113.488;2023-07-30T11:58:30;32.49;49.78
60242;SHT30;46103;52.076;113.488;2023-07-30T12:01:35;32.31;49.93
60242;SHT30;46103;52.076;113.488;2023-07-30T12:04:44;32.03;50.45
60242;SHT30;46103;52.076;113.488;2023-07-30T12:08:04;31.79;51.05
60242;SHT30;46103;52.076;113.488;2023-07-30T12:11:12;31.50;51.86
60242;SHT30;46103;52.076;113.488;2023-07-30T12:14:16;31.23;52.49
60242;SHT30;46103;52.076;113.488;2023-07-30T12:17:20;31.07;52.95
60242;SHT30;46103;52.076;113.488;2023-07-30T12:20:27;30.81;53.17
60242;SHT30;46103;52.076;113.488;2023-07-30T12:23:45;30.60;53.63
60242;SHT30;46103;52.076;113.488;2023-07-30T12:26:51;30.41;53.90
60242;SHT30;46103;52.076;113.488;2023-07-30T12:29:57;30.19;54.86
60242;SHT30;46103;52.076;113.488;2023-07-30T12:33:05;29.95;54.93
60242;SHT30;46103;52.076;113.488;2023-07-30T12:36:11;29.80;55.33
60242;SHT30;46103;52.076;113.488;2023-07-30T12:39:30;29.68;56.20
60242;SHT30;46103;52.076;113.488;2023-07-30T12:43:04;29.55;56.50
60242;SHT30;46103;52.076;113.488;2023-07-30T12:46:23;29.38;56.69
60242;SHT30;46103;52.076;113.488;2023-07-30T12:50:03;29.26;57.13
60242;SHT30;46103;52.076;113.488;2023-07-30T12:53:07;29.10;57.27
60242;SHT30;46103;52.076;113.488;2023-07-30T12:56:25;29.06;57.37
60242;SHT30;46103;52.076;113.488;2023-07-30T12:59:31;28.95;57.73
60242;SHT30;46103;52.076;113.488;2023-07-30T13:02:35;28.91;57.87
60242;SHT30;46103;52.076;113.488;2023-07-30T13:05:44;28.87;57.91
60242;SHT30;46103;52.076;113.488;2023-07-30T13:08:50;28.75;57.77
60242;SHT30;46103;52.076;113.488;2023-07-30T13:11:54;28.71;58.11
60242;SHT30;46103;52.076;113.488;2023-07-30T13:15:15;28.60;58.72
60242;SHT30;46103;52.076;113.488;2023-07-30T13:18:20;28.57;58.79
60242;SHT30;46103;52.076;113.488;2023-07-30T13:21:26;28.48;59.14
60242;SHT30;46103;52.076;113.488;2023-07-30T13:24:58;28.44;59.02
60242;SHT30;46103;52.076;113.488;2023-07-30T13:29:00;28.25;60.78
60242;SHT30;46103;52.076;113.488;2023-07-30T13:32:05;28.00;61.63
60242;SHT30;46103;52.076;113.488;2023-07-30T13:35:09;27.84;62.08
60242;SHT30;46103;52.076;113.488;2023-07-30T13:38:13;27.69;63.46
60242;SHT30;46103;52.076;113.488;2023-07-30T13:41:32;27.49;64.26
60242;SHT30;46103;52.076;113.488;2023-07-30T13:44:39;27.41;64.88
60242;SHT30;46103;52.076;113.488;2023-07-30T13:47:42;27.21;65.21
60242;SHT30;46103;52.076;113.488;2023-07-30T13:50:47;27.00;66.01
60242;SHT30;46103;52.076;113.488;2023-07-30T13:53:51;27.10;65.70
60242;SHT30;46103;52.076;113.488;2023-07-30T13:56:57;27.04;66.19
60242;SHT30;46103;52.076;113.488;2023-07-30T14:00:07;27.02;66.18
60242;SHT30;46103;52.076;113.488;2023-07-30T14:03:14;26.97;65.35
60242;SHT30;46103;52.076;113.488;2023-07-30T14:06:58;27.02;64.91
60242;SHT30;46103;52.076;113.488;2023-07-30T14:10:34;27.08;63.87
60242;SHT30;46103;52.076;113.488;2023-07-30T14:13:39;27.21;64.79
60242;SHT30;46103;52.076;113.488;2023-07-30T14:16:42;27.15;65.68
60242;SHT30;46103;52.076;113.488;2023-07-30T14:19:52;26.87;66.82
60242;SHT30;46103;52.076;113.488;2023-07-30T14:23:37;26.76;66.93
60242;SHT30;46103;52.076;113.488;2023-07-30T14:27:38;26.75;66.59
60242;SHT30;46103;52.076;113.488;2023-07-30T14:31:23;26.69;66.93
60242;SHT30;46103;52.076;113.488;2023-07-30T14:34:28;26.76;67.07
60242;SHT30;46103;52.076;113.488;2023-07-30T14:37:31;26.75;67.10
60242;SHT30;46103;52.076;113.488;2023-07-30T14:40:35;26.79;67.09
60242;SHT30;46103;52.076;113.488;2023-07-30T14:43:38;26.75;66.96
60242;SHT30;46103;52.076;113.488;2023-07-30T14:46:45;26.65;67.39
60242;SHT30;46103;52.076;113.488;2023-07-30T14:49:48;26.59;67.76
60242;SHT30;46103;52.076;113.488;2023-07-30T14:52:54;26.49;67.62
60242;SHT30;46103;52.076;113.488;2023-07-30T14:55:58;26.48;67.63
60242;SHT30;46103;52.076;113.488;2023-07-30T14:59:04;26.46;67.42
60242;SHT30;46103;52.076;113.488;2023-07-30T15:02:07;26.46;67.47
60242;SHT30;46103;52.076;113.488;2023-07-30T15:05:11;26.46;67.41
60242;SHT30;46103;52.076;113.488;2023-07-30T15:08:15;26.44;67.48
60242;SHT30;46103;52.076;113.488;2023-07-30T15:11:19;26.44;67.51
60242;SHT30;46103;52.076;113.488;2023-07-30T15:14:23;26.46;67.50
60242;SHT30;46103;52.076;113.488;2023-07-30T15:17:26;26.46;68.26
60242;SHT30;46103;52.076;113.488;2023-07-30T15:20:31;26.44;68.44
60242;SHT30;46103;52.076;113.488;2023-07-30T15:23:34;26.44;68.11
60242;SHT30;46103;52.076;113.488;2023-07-30T15:26:37;26.42;68.82
60242;SHT30;46103;52.076;113.488;2023-07-30T15:29:41;26.38;69.11
60242;SHT30;46103;52.076;113.488;2023-07-30T15:32:47;26.37;68.80
60242;SHT30;46103;52.076;113.488;2023-07-30T15:35:50;26.38;67.96
60242;SHT30;46103;52.076;113.488;2023-07-30T15:38:58;26.31;67.78
60242;SHT30;46103;52.076;113.488;2023-07-30T15:42:03;26.25;68.09
60242;SHT30;46103;52.076;113.488;2023-07-30T15:45:07;26.22;68.55
60242;SHT30;46103;52.076;113.488;2023-07-30T15:48:12;26.17;68.21
60242;SHT30;46103;52.076;113.488;2023-07-30T15:51:15;26.13;69.10
60242;SHT30;46103;52.076;113.488;2023-07-30T15:54:34;26.08;68.43
60242;SHT30;46103;52.076;113.488;2023-07-30T15:57:37;26.07;69.35
60242;SHT30;46103;52.076;113.488;2023-07-30T16:00:41;26.04;68.26
60242;SHT30;46103;52.076;113.488;2023-07-30T16:03:46;26.01;68.98
60242;SHT30;46103;52.076;113.488;2023-07-30T16:06:50;25.89;68.89
60242;SHT30;46103;52.076;113.488;2023-07-30T16:09:53;25.79;69.11
60242;SHT30;46103;52.076;113.488;2023-07-30T16:12:56;25.69;69.19
60242;SHT30;46103;52.076;113.488;2023-07-30T16:16:12;25.47;70.76
60242;SHT30;46103;52.076;113.488;2023-07-30T16:19:16;25.38;71.12
60242;SHT30;46103;52.076;113.488;2023-07-30T16:22:20;25.29;71.52
60242;SHT30;46103;52.076;113.488;2023-07-30T16:25:23;25.22;71.74
60242;SHT30;46103;52.076;113.488;2023-07-30T16:28:27;25.15;71.87
60242;SHT30;46103;52.076;113.488;2023-07-30T16:31:32;25.17;72.23
60242;SHT30;46103;52.076;113.488;2023-07-30T16:34:36;25.15;71.82
60242;SHT30;46103;52.076;113.488;2023-07-30T16:37:39;25.12;71.44
60242;SHT30;46103;52.076;113.488;2023-07-30T16:40:44;24.98;71.77
60242;SHT30;46103;52.076;113.488;2023-07-30T16:43:47;24.84;72.02
60242;SHT30;46103;52.076;113.488;2023-07-30T16:46:51;24.81;72.63
60242;SHT30;46103;52.076;113.488;2023-07-30T16:49:55;24.83;72.44
60242;SHT30;46103;52.076;113.488;2023-07-30T16:52:58;24.74;71.92
60242;SHT30;46103;52.076;113.488;2023-07-30T16:56:12;24.46;72.70
60242;SHT30;46103;52.076;113.488;2023-07-30T16:59:16;24.22;74.22
60242;SHT30;46103;52.076;113.488;2023-07-30T17:02:20;24.21;74.71
60242;SHT30;46103;52.076;113.488;2023-07-30T17:05:24;24.25;74.17
60242;SHT30;46103;52.076;113.488;2023-07-30T17:08:28;24.29;74.05
60242;SHT30;46103;52.076;113.488;2023-07-30T17:11:32;24.25;73.77
60242;SHT30;46103;52.076;113.488;2023-07-30T17:14:36;24.21;73.77
60242;SHT30;46103;52.076;113.488;2023-07-30T17:17:39;24.18;74.11
60242;SHT30;46103;52.076;113.488;2023-07-30T17:20:43;24.18;73.94
60242;SHT30;46103;52.076;113.488;2023-07-30T17:23:48;24.16;74.12
60242;SHT30;46103;52.076;113.488;2023-07-30T17:26:51;24.16;74.65
60242;SHT30;46103;52.076;113.488;2023-07-30T17:29:55;24.18;74.77
60242;SHT30;46103;52.076;113.488;2023-07-30T17:33:01;24.12;74.95
60242;SHT30;46103;52.076;113.488;2023-07-30T17:36:05;24.12;74.95
60242;SHT30;46103;52.076;113.488;2023-07-30T17:39:11;24.14;74.50
60242;SHT30;46103;52.076;113.488;2023-07-30T17:42:15;24.12;75.42
60242;SHT30;46103;52.076;113.488;2023-07-30T17:45:19;24.06;75.64
60242;SHT30;46103;52.076;113.488;2023-07-30T17:48:22;24.04;75.53
60242;SHT30;46103;52.076;113.488;2023-07-30T17:51:26;24.04;75.14
60242;SHT30;46103;52.076;113.488;2023-07-30T17:54:30;24.08;75.26
60242;SHT30;46103;52.076;113.488;2023-07-30T17:57:35;24.09;75.09
60242;SHT30;46103;52.076;113.488;2023-07-30T18:00:45;24.14;74.29
60242;SHT30;46103;52.076;113.488;2023-07-30T18:03:50;24.12;73.57
60242;SHT30;46103;52.076;113.488;2023-07-30T18:06:53;24.08;74.87
60242;SHT30;46103;52.076;113.488;2023-07-30T18:09:57;23.95;74.96
60242;SHT30;46103;52.076;113.488;2023-07-30T18:13:01;23.77;75.86
60242;SHT30;46103;52.076;113.488;2023-07-30T18:16:04;23.61;76.06
60242;SHT30;46103;52.076;113.488;2023-07-30T18:19:08;23.58;76.02
60242;SHT30;46103;52.076;113.488;2023-07-30T18:22:11;23.54;76.16
60242;SHT30;46103;52.076;113.488;2023-07-30T18:25:15;23.49;76.35
60242;SHT30;46103;52.076;113.488;2023-07-30T18:28:19;23.43;76.68
60242;SHT30;46103;52.076;113.488;2023-07-30T18:31:22;23.36;76.87
60242;SHT30;46103;52.076;113.488;2023-07-30T18:34:25;23.34;77.09
60242;SHT30;46103;52.076;113.488;2023-07-30T18:37:30;23.23;77.64
60242;SHT30;46103;52.076;113.488;2023-07-30T18:40:36;23.23;78.17
60242;SHT30;46103;52.076;113.488;2023-07-30T18:43:41;23.23;77.68
60242;SHT30;46103;52.076;113.488;2023-07-30T18:46:44;23.16;77.60
60242;SHT30;46103;52.076;113.488;2023-07-30T18:49:49;23.08;77.95
60242;SHT30;46103;52.076;113.488;2023-07-30T18:52:53;23.03;78.03
60242;SHT30;46103;52.076;113.488;2023-07-30T18:55:59;23.06;77.90
60242;SHT30;46103;52.076;113.488;2023-07-30T18:59:04;23.06;77.85
60242;SHT30;46103;52.076;113.488;2023-07-30T19:02:10;23.09;77.81
60242;SHT30;46103;52.076;113.488;2023-07-30T19:05:13;23.05;77.85
60242;SHT30;46103;52.076;113.488;2023-07-30T19:08:17;22.99;77.91
60242;SHT30;46103;52.076;113.488;2023-07-30T19:11:22;22.98;77.96
60242;SHT30;46103;52.076;113.488;2023-07-30T19:14:26;22.96;78.01